createdAt,value
2023-04-18T00:03:03.244Z,48.04
2023-04-18T00:08:05.715Z,48.93
2023-04-18T00:13:07.485Z,48.52
2023-04-18T00:18:09.033Z,48.39
2023-04-18T00:23:14.041Z,49.54
2023-04-18T00:28:15.673Z,50.23
2023-04-18T00:33:17.249Z,49.64
2023-04-18T00:38:18.740Z,50.02
2023-04-18T00:43:23.064Z,50.10
2023-04-18T00:48:24.544Z,49.93
2023-04-18T00:53:26.017Z,51.27
2023-04-18T00:58:27.517Z,49.45
2023-04-18T01:03:29.247Z,50.71
2023-04-18T01:08:31.272Z,49.85
2023-04-18T01:13:32.744Z,51.15
2023-04-18T01:18:35.046Z,51.32
2023-04-18T01:23:36.522Z,50.99
2023-04-18T01:28:38.064Z,52.74
2023-04-18T01:33:39.514Z,52.04
2023-04-18T01:38:40.967Z,51.08
2023-04-18T01:43:42.443Z,51.49
2023-04-18T01:48:43.940Z,52.00
2023-04-18T01:53:45.490Z,50.08
2023-04-18T01:58:46.996Z,50.88
2023-04-18T02:03:48.717Z,52.36
2023-04-18T02:08:50.315Z,52.71
2023-04-18T02:13:52.269Z,52.26
2023-04-18T02:18:53.729Z,51.60
2023-04-18T02:23:55.180Z,52.12
2023-04-18T02:28:58.521Z,53.03
2023-04-18T02:34:00.074Z,53.13
2023-04-18T02:39:01.561Z,52.95
2023-04-18T02:44:03.059Z,56.05
2023-04-18T02:49:04.612Z,57.01
2023-04-18T02:54:06.057Z,54.71
2023-04-18T02:59:07.510Z,52.99
2023-04-18T03:04:08.984Z,52.93
2023-04-18T03:09:10.484Z,52.01
2023-04-18T03:14:12.175Z,51.96
2023-04-18T03:19:13.794Z,51.54
2023-04-18T03:24:15.389Z,51.47
2023-04-18T03:29:16.901Z,54.60
2023-04-18T03:34:18.355Z,53.25
2023-04-18T03:39:19.816Z,55.51
2023-04-18T03:44:21.285Z,55.41
2023-04-18T03:49:22.749Z,55.47
2023-04-18T03:54:24.210Z,54.86
2023-04-18T03:59:26.055Z,53.79
2023-04-18T04:04:27.623Z,52.52
2023-04-18T04:09:29.146Z,53.44
2023-04-18T04:14:30.609Z,52.57
2023-04-18T04:19:32.068Z,52.11
2023-04-18T04:24:33.704Z,52.67
2023-04-18T04:29:36.058Z,53.81
2023-04-18T04:34:37.515Z,52.32
2023-04-18T04:39:38.989Z,50.69
2023-04-18T04:44:41.627Z,51.22
2023-04-18T04:49:43.243Z,50.79
2023-04-18T04:54:45.791Z,49.94
2023-04-18T04:59:47.279Z,50.47
2023-04-18T05:04:49.528Z,47.26
2023-04-18T05:09:53.114Z,46.39
2023-04-18T05:14:54.602Z,45.96
2023-04-18T05:19:56.082Z,45.61
2023-04-18T05:24:57.546Z,45.90
2023-04-18T05:29:59.110Z,46.57
2023-04-18T05:35:00.601Z,45.91
2023-04-18T05:40:02.069Z,44.33
2023-04-18T05:45:03.605Z,43.67
2023-04-18T05:50:05.807Z,44.00
2023-04-18T05:55:07.469Z,43.93
2023-04-18T06:00:12.639Z,42.47
2023-04-18T06:05:14.326Z,41.36
2023-04-18T06:10:16.105Z,41.82
2023-04-18T06:15:18.632Z,42.96
2023-04-18T06:20:20.268Z,42.25
2023-04-18T06:25:21.753Z,42.50
2023-04-18T06:30:23.222Z,41.84
2023-04-18T06:35:26.652Z,42.43
2023-04-18T06:40:28.408Z,41.79
2023-04-18T06:45:31.072Z,41.29
2023-04-18T06:50:32.641Z,41.26
2023-04-18T06:55:34.103Z,39.80
2023-04-18T07:00:35.663Z,41.74
2023-04-18T07:05:37.684Z,41.02
2023-04-18T07:10:39.172Z,41.34
2023-04-18T07:15:41.649Z,41.04
2023-04-18T07:20:43.107Z,39.82
2023-04-18T07:25:45.144Z,42.29
2023-04-18T07:30:48.246Z,44.42
2023-04-18T07:35:50.250Z,42.84
2023-04-18T07:40:58.594Z,40.84
2023-04-18T07:46:00.652Z,42.70
2023-04-18T07:51:02.798Z,44.29
2023-04-18T07:56:04.397Z,43.07
2023-04-18T08:01:06.987Z,43.27
2023-04-18T08:06:08.490Z,43.92
2023-04-18T08:11:09.966Z,43.64
2023-04-18T08:16:11.500Z,43.29
2023-04-18T08:21:13.040Z,43.16
2023-04-18T08:26:14.675Z,42.91
2023-04-18T08:31:17.071Z,41.89
2023-04-18T08:36:18.630Z,41.61
2023-04-18T08:41:21.639Z,42.45
2023-04-18T08:46:23.165Z,43.19
2023-04-18T08:51:24.707Z,41.95
2023-04-18T08:56:27.236Z,41.58
2023-04-18T09:01:56.792Z,41.74
2023-04-18T09:06:58.516Z,44.69
2023-04-18T09:12:09.190Z,43.60
2023-04-18T09:17:31.470Z,44.34
2023-04-18T09:22:57.637Z,44.29
2023-04-18T09:28:00.876Z,44.49
2023-04-18T09:33:06.136Z,44.61
2023-04-18T09:38:07.972Z,44.10
2023-04-18T09:43:19.412Z,44.43
2023-04-18T09:48:20.972Z,43.20
2023-04-18T09:53:22.444Z,44.34
2023-04-18T09:58:23.906Z,44.96
2023-04-18T10:03:28.746Z,46.31
2023-04-18T10:08:30.472Z,46.39
2023-04-18T10:13:32.012Z,49.09
2023-04-18T10:18:33.518Z,47.76
2023-04-18T10:23:36.856Z,46.41
2023-04-18T10:28:54.524Z,46.45
2023-04-18T10:39:22.900Z,45.89
2023-04-18T10:44:24.536Z,45.67
2023-04-18T10:49:30.238Z,46.22
2023-04-18T10:54:51.184Z,47.39
2023-04-18T10:59:52.650Z,44.50
2023-04-18T11:04:55.390Z,42.66
2023-04-18T11:09:57.026Z,42.90
2023-04-18T11:14:59.007Z,42.40
2023-04-18T11:20:27.085Z,42.49
2023-04-18T11:25:32.295Z,42.16
2023-04-18T11:30:40.287Z,38.98
2023-04-18T11:35:42.675Z,39.55
2023-04-18T11:40:48.261Z,38.79
2023-04-18T11:45:56.855Z,38.57
2023-04-18T11:50:58.365Z,35.94
2023-04-18T11:55:59.906Z,35.89
2023-04-18T12:01:24.864Z,35.11
2023-04-18T12:06:27.599Z,32.97
2023-04-18T12:11:29.317Z,34.18
2023-04-18T12:16:30.889Z,34.78
2023-04-18T12:21:33.006Z,35.02
2023-04-18T12:26:34.465Z,35.15
2023-04-18T12:31:35.976Z,36.19
2023-04-18T12:36:37.447Z,35.81
2023-04-18T12:41:38.927Z,35.77
2023-04-18T12:46:40.401Z,35.95
2023-04-18T12:51:43.501Z,37.35
2023-04-18T12:56:45.922Z,37.29
2023-04-18T13:01:47.442Z,35.66
2023-04-18T13:06:48.997Z,35.48
2023-04-18T13:11:50.463Z,32.06
2023-04-18T13:16:51.989Z,31.98
2023-04-18T13:21:53.520Z,31.84
2023-04-18T13:26:55.123Z,31.64
2023-04-18T13:31:56.645Z,31.86
2023-04-18T13:36:59.116Z,31.94
2023-04-18T13:42:02.933Z,32.56
2023-04-18T13:47:05.033Z,33.85
2023-04-18T13:52:06.498Z,33.28
2023-04-18T13:57:11.578Z,33.21
2023-04-18T14:02:13.297Z,33.41
2023-04-18T14:07:14.913Z,34.13
2023-04-18T14:12:16.440Z,32.87
2023-04-18T14:17:17.958Z,33.13
2023-04-18T14:22:19.413Z,32.86
2023-04-18T14:27:20.904Z,32.55
2023-04-18T14:32:22.418Z,33.37
2023-04-18T14:37:23.910Z,33.68
2023-04-18T14:42:25.373Z,33.54
2023-04-18T14:47:31.590Z,34.99
2023-04-18T14:52:33.126Z,35.93
2023-04-18T14:57:37.778Z,35.59
2023-04-18T15:02:39.599Z,35.81
2023-04-18T15:07:43.126Z,35.86
2023-04-18T15:12:46.734Z,36.28
2023-04-18T15:17:48.285Z,36.32
2023-04-18T15:22:49.781Z,36.35
2023-04-18T15:27:51.251Z,36.91
2023-04-18T15:32:53.892Z,37.41
2023-04-18T15:37:56.551Z,38.34
2023-04-18T15:42:59.489Z,37.82
2023-04-18T15:48:01.023Z,37.40
2023-04-18T15:53:02.542Z,38.87
2023-04-18T15:58:04.079Z,38.67
2023-04-18T16:03:09.773Z,39.34
2023-04-18T16:08:11.458Z,39.05
2023-04-18T16:13:13.829Z,38.68
2023-04-18T16:18:15.323Z,41.94
2023-04-18T16:23:16.792Z,42.02
2023-04-18T16:28:18.556Z,43.16
2023-04-18T16:33:24.417Z,41.36
2023-04-18T16:38:27.292Z,40.80
2023-04-18T16:43:30.821Z,47.34
2023-04-18T16:48:32.336Z,46.72
2023-04-18T16:53:33.828Z,45.50
2023-04-18T16:58:35.361Z,43.60
2023-04-18T17:03:37.455Z,44.28
2023-04-18T17:08:39.052Z,43.46
2023-04-18T17:13:40.525Z,43.49
2023-04-18T17:18:42.010Z,42.58
2023-04-18T17:23:43.480Z,42.09
2023-04-18T17:28:44.951Z,43.96
2023-04-18T17:33:46.552Z,42.20
2023-04-18T17:38:50.744Z,41.89
2023-04-18T17:43:52.472Z,40.14
2023-04-18T17:48:53.985Z,40.73
2023-04-18T17:53:55.450Z,40.24
2023-04-18T17:58:57.156Z,40.37
2023-04-18T18:03:58.848Z,41.15
2023-04-18T18:09:00.473Z,41.25
2023-04-18T18:14:02.001Z,40.70
2023-04-18T18:19:03.506Z,41.03
2023-04-18T18:24:05.220Z,41.38
2023-04-18T18:29:09.566Z,44.04
2023-04-18T18:34:11.285Z,44.02
2023-04-18T18:39:14.507Z,44.00
2023-04-18T18:44:16.292Z,43.75
2023-04-18T18:49:17.757Z,45.12
2023-04-18T18:54:19.300Z,46.07
2023-04-18T18:59:20.784Z,48.69
2023-04-18T19:04:22.476Z,47.36
2023-04-18T19:09:24.025Z,49.45
2023-04-18T19:14:25.618Z,48.00
2023-04-18T19:19:27.181Z,50.82
2023-04-18T19:24:28.661Z,48.81
2023-04-18T19:29:32.592Z,49.27
2023-04-18T19:34:34.427Z,49.38
2023-04-18T19:39:36.292Z,47.86
2023-04-18T19:44:37.766Z,48.40
2023-04-18T19:49:39.315Z,47.14
2023-04-18T19:54:41.237Z,47.06
2023-04-18T19:59:43.181Z,47.86
2023-04-18T20:04:44.844Z,47.68
2023-04-18T20:09:46.414Z,45.85
2023-04-18T20:14:47.893Z,43.62
2023-04-18T20:19:49.772Z,40.38
2023-04-18T20:24:52.672Z,37.80
2023-04-18T20:29:56.056Z,41.27
2023-04-18T20:34:59.879Z,44.27
2023-04-18T20:40:02.834Z,43.92
2023-04-18T20:45:05.504Z,45.11
2023-04-18T20:50:07.681Z,42.13
2023-04-18T20:55:09.209Z,44.63
2023-04-18T21:00:11.241Z,47.46
2023-04-18T21:05:12.744Z,46.25
2023-04-18T21:10:14.234Z,44.49
2023-04-18T21:15:15.697Z,46.49
2023-04-18T21:20:17.565Z,44.79
2023-04-18T21:25:21.103Z,44.75
2023-04-18T21:30:22.572Z,43.17
2023-04-18T21:35:24.913Z,43.64
2023-04-18T21:40:26.829Z,43.05
2023-04-18T21:45:28.314Z,42.16
2023-04-18T21:50:29.830Z,40.94
2023-04-18T21:55:31.292Z,40.65
2023-04-18T22:00:32.766Z,39.80
2023-04-18T22:05:36.757Z,36.90
2023-04-18T22:10:38.761Z,37.49
2023-04-18T22:15:40.830Z,37.36
2023-04-18T22:20:42.346Z,37.48
2023-04-18T22:25:43.831Z,37.53
2023-04-18T22:30:45.438Z,38.15
2023-04-18T22:35:47.524Z,38.30
2023-04-18T22:40:49.006Z,37.23
2023-04-18T22:45:50.901Z,37.59
2023-04-18T22:50:52.453Z,38.83
2023-04-18T22:55:53.963Z,39.68
2023-04-18T23:00:55.430Z,39.14
2023-04-18T23:05:56.902Z,38.20
2023-04-18T23:10:58.368Z,38.28
2023-04-18T23:15:59.910Z,38.02
2023-04-18T23:21:01.421Z,37.46
2023-04-18T23:26:02.977Z,38.28
2023-04-18T23:31:04.484Z,37.69
2023-04-18T23:36:06.527Z,37.99
2023-04-18T23:41:08.014Z,38.61
2023-04-18T23:46:09.511Z,40.76
2023-04-18T23:51:11.224Z,40.34
2023-04-18T23:56:12.678Z,40.56
